Time,TemperatureF,DewpointF,PressureIn,WindDirection,WindDirectionDegrees,WindSpeedMPH,WindSpeedGustMPH,Humidity,HourlyPrecipIn,Conditions,Clouds,dailyrainin,SoftwareType,DateUTC
2013-05-09 17:08:00,78.8,53.1,27.90,NNW,338,1.3,1.3,41,0.00,,---,0.00,VWS V14.00,2013-05-09 21:08:00,
2013-05-09 17:13:00,78.4,53.5,27.88,WNW,292,0.9,0.9,42,0.00,,---,0.00,VWS V14.00,2013-05-09 21:13:00,
2013-05-09 17:14:00,78.4,53.5,27.88,NNW,338,2.2,2.2,42,0.00,,---,0.00,VWS V14.00,2013-05-09 21:14:00,
2013-05-09 17:18:00,78.4,53.5,27.88,NNE,22,4.0,4.0,42,0.00,,---,0.00,VWS V14.00,2013-05-09 21:18:00,
2013-05-09 17:19:00,78.4,53.5,27.88,NNE,22,4.0,4.0,42,0.00,,---,0.00,VWS V14.00,2013-05-09 21:19:00,
2013-05-09 17:23:00,78.3,54.0,27.88,NNE,22,2.7,2.7,43,0.00,,---,0.00,VWS V14.00,2013-05-09 21:23:00,
2013-05-09 17:24:00,78.3,54.0,27.88,NNE,22,2.7,2.7,43,0.00,,---,0.00,VWS V14.00,2013-05-09 21:24:00,
2013-05-09 17:28:00,78.3,54.0,27.90,NE,45,1.6,1.6,43,0.00,,---,0.00,VWS V14.00,2013-05-09 21:28:00,
2013-05-09 17:29:00,78.3,54.0,27.90,North,0,1.3,1.3,43,0.00,,---,0.00,VWS V14.00,2013-05-09 21:29:00,
2013-05-09 17:33:00,78.3,54.0,27.90,North,0,2.2,2.2,43,0.00,,---,0.00,VWS V14.00,2013-05-09 21:33:00,
2013-05-09 17:34:00,78.4,54.7,27.90,North,0,2.2,2.2,44,0.00,,---,0.00,VWS V14.00,2013-05-09 21:34:00,
2013-05-09 17:38:00,78.4,54.7,27.90,WNW,292,3.8,3.8,44,0.00,,---,0.00,VWS V14.00,2013-05-09 21:38:00,
2013-05-09 17:39:00,78.4,54.7,27.90,NW,315,4.0,4.0,44,0.00,,---,0.00,VWS V14.00,2013-05-09 21:39:00,
2013-05-09 17:43:00,78.4,54.7,27.90,NNE,22,2.0,2.2,44,0.00,,---,0.00,VWS V14.00,2013-05-09 21:43:00,
2013-05-09 17:44:00,78.4,54.7,27.88,NNE,22,2.0,2.0,44,0.00,,---,0.00,VWS V14.00,2013-05-09 21:44:00,
2013-05-09 17:45:00,78.4,54.7,27.88,East,90,0.0,0.0,44,0.00,,---,0.00,VWS V14.00,2013-05-09 21:45:00,
2013-05-09 17:49:00,78.4,54.7,27.88,NNW,338,2.2,2.2,44,0.00,,---,0.00,VWS V14.00,2013-05-09 21:49:00,
2013-05-09 17:50:00,78.4,54.7,27.88,North,0,2.0,2.0,44,0.00,,---,0.00,VWS V14.00,2013-05-09 21:50:00,
2013-05-09 17:54:00,78.4,54.7,27.88,East,90,2.2,2.2,44,0.00,,---,0.00,VWS V14.00,2013-05-09 21:54:00,
2013-05-09 17:55:00,78.4,54.7,27.88,East,90,2.2,2.2,44,0.00,,---,0.00,VWS V14.00,2013-05-09 21:55:00,
2013-05-09 17:56:00,78.4,54.7,27.88,NNW,338,2.0,2.0,44,0.00,,---,0.00,VWS V14.00,2013-05-09 21:56:00,
2013-05-09 17:59:00,76.8,53.3,27.88,North,0,1.6,1.6,44,0.00,,---,0.00,VWS V14.00,2013-05-09 21:59:00,
2013-05-09 18:00:00,76.8,53.3,27.88,North,0,1.6,1.6,44,0.00,,---,0.00,VWS V14.00,2013-05-09 22:00:00,
2013-05-09 18:01:00,76.5,53.6,27.88,NNW,338,3.4,4.3,45,0.00,,---,0.00,VWS V14.00,2013-05-09 22:01:00,
2013-05-09 18:05:00,76.5,53.6,27.88,NW,315,1.6,1.6,45,0.00,,---,0.00,VWS V14.00,2013-05-09 22:05:00,
2013-05-09 18:06:00,76.3,54.0,27.88,NNW,338,2.0,2.0,46,0.00,,---,0.00,VWS V14.00,2013-05-09 22:06:00,
2013-05-09 18:10:00,76.5,54.2,27.88,NNE,22,0.0,0.0,46,0.00,,---,0.00,VWS V14.00,2013-05-09 22:10:00,
2013-05-09 18:11:00,76.6,54.3,27.88,NE,45,2.2,2.2,46,0.00,,---,0.00,VWS V14.00,2013-05-09 22:11:00,
2013-05-09 18:15:00,76.5,54.8,27.88,NE,45,1.3,2.5,47,0.00,,---,0.00,VWS V14.00,2013-05-09 22:15:00,
2013-05-09 18:16:00,76.5,54.8,27.88,NE,45,1.3,1.3,47,0.00,,---,0.00,VWS V14.00,2013-05-09 22:16:00,
2013-05-09 18:20:00,76.5,54.2,27.88,South,180,1.1,1.1,46,0.00,,---,0.00,VWS V14.00,2013-05-09 22:20:00,
2013-05-09 18:21:00,76.5,54.2,27.88,NNW,338,1.6,1.6,46,0.00,,---,0.00,VWS V14.00,2013-05-09 22:21:00,
2013-05-09 18:26:00,76.5,54.8,27.88,NNE,22,2.9,2.9,47,0.00,,---,0.00,VWS V14.00,2013-05-09 22:26:00,
2013-05-09 18:31:00,76.1,53.8,27.88,NE,45,2.0,2.0,46,0.00,,---,0.00,VWS V14.00,2013-05-09 22:31:00,
2013-05-09 18:36:00,76.1,54.4,27.88,North,0,1.1,1.1,47,0.00,,---,0.00,VWS V14.00,2013-05-09 22:36:00,
2013-05-09 18:41:00,76.1,53.8,27.88,WNW,292,2.0,2.0,46,0.00,,---,0.00,VWS V14.00,2013-05-09 22:41:00,
2013-05-09 18:42:00,75.9,54.3,27.88,NW,315,0.0,2.0,47,0.00,,---,0.00,VWS V14.00,2013-05-09 22:42:00,
2013-05-09 18:46:00,75.7,53.5,27.88,NE,45,2.9,2.9,46,0.00,,---,0.00,VWS V14.00,2013-05-09 22:46:00,
2013-05-09 18:47:00,75.7,53.5,27.88,NE,45,1.1,1.1,46,0.00,,---,0.00,VWS V14.00,2013-05-09 22:47:00,
2013-05-09 18:51:00,75.7,54.1,27.88,North,0,0.9,0.9,47,0.00,,---,0.00,VWS V14.00,2013-05-09 22:51:00,
2013-05-09 18:52:00,75.7,54.1,27.88,NE,45,0.0,0.0,47,0.00,,---,0.00,VWS V14.00,2013-05-09 22:52:00,
2013-05-09 18:56:00,75.6,54.5,27.88,NW,315,2.7,2.7,48,0.00,,---,0.00,VWS V14.00,2013-05-09 22:56:00,
2013-05-09 18:57:00,75.6,54.5,27.88,NW,315,2.7,2.7,48,0.00,,---,0.00,VWS V14.00,2013-05-09 22:57:00,
2013-05-09 18:58:00,75.6,53.9,27.88,NNE,22,2.5,2.5,47,0.00,,---,0.00,VWS V14.00,2013-05-09 22:58:00,
2013-05-09 19:01:00,75.4,54.3,27.88,NNW,338,2.0,2.0,48,0.00,,---,0.00,VWS V14.00,2013-05-09 23:01:00,
2013-05-09 19:02:00,75.4,54.3,27.88,North,0,2.0,2.0,48,0.00,,---,0.00,VWS V14.00,2013-05-09 23:02:00,
2013-05-09 19:03:00,75.4,54.3,27.88,NNW,338,2.2,2.2,48,0.00,,---,0.00,VWS V14.00,2013-05-09 23:03:00,
2013-05-09 19:06:00,75.2,54.2,27.88,NNE,22,1.6,1.6,48,0.00,,---,0.00,VWS V14.00,2013-05-09 23:06:00,
2013-05-09 19:07:00,75.2,54.2,27.88,NNE,22,1.6,1.6,48,0.00,,---,0.00,VWS V14.00,2013-05-09 23:07:00,
2013-05-09 19:08:00,75.2,54.2,27.88,NNE,22,1.3,2.0,48,0.00,,---,0.00,VWS V14.00,2013-05-09 23:08:00,
2013-05-09 19:12:00,74.8,53.8,27.88,WNW,292,3.1,3.1,48,0.00,,---,0.00,VWS V14.00,2013-05-09 23:12:00,
2013-05-09 19:14:00,74.8,54.4,27.88,North,0,3.4,3.6,49,0.00,,---,0.00,VWS V14.00,2013-05-09 23:14:00,
2013-05-09 19:17:00,74.7,54.2,27.88,NNE,22,3.1,3.1,49,0.00,,---,0.00,VWS V14.00,2013-05-09 23:17:00,
2013-05-09 19:19:00,74.7,54.2,27.88,NNW,338,2.0,2.0,49,0.00,,---,0.00,VWS V14.00,2013-05-09 23:19:00,
2013-05-09 19:22:00,74.7,54.8,27.88,NNW,338,2.7,2.7,50,0.00,,---,0.00,VWS V14.00,2013-05-09 23:22:00,
2013-05-09 19:24:00,74.5,54.6,27.88,North,0,1.1,1.1,50,0.00,,---,0.00,VWS V14.00,2013-05-09 23:24:00,
2013-05-09 19:27:00,74.3,54.5,27.88,NNE,22,2.0,2.0,50,0.00,,---,0.00,VWS V14.00,2013-05-09 23:27:00,
2013-05-09 19:29:00,74.3,54.5,27.88,NE,45,0.9,0.9,50,0.00,,---,0.00,VWS V14.00,2013-05-09 23:29:00,
2013-05-09 19:32:00,74.3,54.5,27.88,NNW,338,1.6,1.6,50,0.00,,---,0.00,VWS V14.00,2013-05-09 23:32:00,
2013-05-09 19:33:00,74.1,54.3,27.88,North,0,3.1,3.1,50,0.00,,---,0.00,VWS V14.00,2013-05-09 23:33:00,
2013-05-09 19:34:00,74.1,54.3,27.88,North,0,3.1,3.1,50,0.00,,---,0.00,VWS V14.00,2013-05-09 23:34:00,
2013-05-09 19:37:00,74.1,54.3,27.88,NNW,338,2.7,2.7,50,0.00,,---,0.00,VWS V14.00,2013-05-09 23:37:00,
2013-05-09 19:38:00,74.1,54.3,27.88,NNW,338,2.7,2.7,50,0.00,,---,0.00,VWS V14.00,2013-05-09 23:38:00,
2013-05-09 19:39:00,73.9,54.2,27.88,North,0,2.5,2.5,50,0.00,,---,0.00,VWS V14.00,2013-05-09 23:39:00,
2013-05-09 19:42:00,73.8,54.0,27.88,NNE,22,1.6,1.6,50,0.00,,---,0.00,VWS V14.00,2013-05-09 23:42:00,
2013-05-09 19:43:00,73.8,54.0,27.88,NNE,22,1.6,1.6,50,0.00,,---,0.00,VWS V14.00,2013-05-09 23:43:00,
2013-05-09 19:44:00,73.6,53.8,27.88,ENE,68,1.3,1.3,50,0.00,,---,0.00,VWS V14.00,2013-05-09 23:44:00,
2013-05-09 19:47:00,73.6,54.4,27.88,NNW,338,1.6,1.6,51,0.00,,---,0.00,VWS V14.00,2013-05-09 23:47:00,
2013-05-09 19:48:00,73.6,54.4,27.88,NNW,338,1.6,1.6,51,0.00,,---,0.00,VWS V14.00,2013-05-09 23:48:00,
2013-05-09 19:50:00,73.4,54.2,27.88,NNW,338,1.3,1.3,51,0.00,,---,0.00,VWS V14.00,2013-05-09 23:50:00,
2013-05-09 19:52:00,73.2,54.6,27.88,NNW,338,1.6,2.0,52,0.00,,---,0.00,VWS V14.00,2013-05-09 23:52:00,
2013-05-09 19:53:00,73.2,54.6,27.88,NNW,338,1.6,2.0,52,0.00,,---,0.00,VWS V14.00,2013-05-09 23:53:00,
2013-05-09 19:55:00,73.2,54.6,27.88,North,0,1.6,1.6,52,0.00,,---,0.00,VWS V14.00,2013-05-09 23:55:00,
2013-05-09 19:57:00,73.0,54.9,27.88,North,0,2.0,2.0,53,0.00,,---,0.00,VWS V14.00,2013-05-09 23:57:00,
2013-05-09 19:58:00,73.0,54.9,27.88,North,0,2.0,2.0,53,0.00,,---,0.00,VWS V14.00,2013-05-09 23:58:00,
2013-05-09 20:00:00,72.7,54.6,27.88,NNW,338,1.3,1.3,53,0.00,,---,0.00,VWS V14.00,2013-05-10 00:00:00,
2013-05-09 20:02:00,72.7,54.6,27.88,North,0,1.6,1.6,53,0.00,,---,0.00,VWS V14.00,2013-05-10 00:02:00,
2013-05-09 20:03:00,72.5,54.4,27.88,North,0,1.6,1.6,53,0.00,,---,0.00,VWS V14.00,2013-05-10 00:03:00,
2013-05-09 20:05:00,72.5,54.4,27.88,North,0,0.0,0.0,53,0.00,,---,0.00,VWS V14.00,2013-05-10 00:05:00,
2013-05-09 20:08:00,72.5,54.4,27.88,North,0,0.0,1.3,53,0.00,,---,0.00,VWS V14.00,2013-05-10 00:08:00,
2013-05-09 20:10:00,72.3,54.2,27.88,North,0,0.0,0.0,53,0.00,,---,0.00,VWS V14.00,2013-05-10 00:10:00,
2013-05-09 20:13:00,72.1,54.6,27.88,NNW,338,0.0,0.0,54,0.00,,---,0.00,VWS V14.00,2013-05-10 00:13:00,
2013-05-09 20:14:00,72.0,54.4,27.88,NNW,338,0.0,0.0,54,0.00,,---,0.00,VWS V14.00,2013-05-10 00:14:00,
2013-05-09 20:16:00,71.8,54.8,27.88,WNW,292,0.0,0.0,55,0.00,,---,0.00,VWS V14.00,2013-05-10 00:16:00,
2013-05-09 20:18:00,71.6,55.1,27.88,NW,315,0.0,0.0,56,0.00,,---,0.00,VWS V14.00,2013-05-10 00:18:00,
2013-05-09 20:19:00,71.2,55.2,27.88,NW,315,0.0,0.0,57,0.00,,---,0.00,VWS V14.00,2013-05-10 00:19:00,
2013-05-09 20:20:00,71.2,55.2,27.88,NW,315,0.0,0.0,57,0.00,,---,0.00,VWS V14.00,2013-05-10 00:20:00,
2013-05-09 20:21:00,71.2,55.7,27.88,NW,315,0.0,0.0,58,0.00,,---,0.00,VWS V14.00,2013-05-10 00:21:00,
2013-05-09 20:23:00,71.1,55.5,27.88,NW,315,0.0,0.0,58,0.00,,---,0.00,VWS V14.00,2013-05-10 00:23:00,
2013-05-09 20:24:00,71.1,55.5,27.88,NW,315,0.0,0.0,58,0.00,,---,0.00,VWS V14.00,2013-05-10 00:24:00,
2013-05-09 20:25:00,71.1,56.0,27.88,NW,315,0.0,0.0,59,0.00,,---,0.00,VWS V14.00,2013-05-10 00:25:00,
2013-05-09 20:26:00,70.9,55.8,27.88,NW,315,0.0,0.0,59,0.00,,---,0.00,VWS V14.00,2013-05-10 00:26:00,
2013-05-09 20:29:00,70.7,55.7,27.88,NW,315,0.0,0.0,59,0.00,,---,0.00,VWS V14.00,2013-05-10 00:29:00,
2013-05-09 20:30:00,70.5,56.0,27.88,NW,315,0.0,0.0,60,0.00,,---,0.00,VWS V14.00,2013-05-10 00:30:00,
2013-05-09 20:31:00,70.3,55.3,27.88,NW,315,0.0,0.0,59,0.00,,---,0.00,VWS V14.00,2013-05-10 00:31:00,
2013-05-09 20:34:00,70.2,55.6,27.88,NW,315,0.0,0.0,60,0.00,,---,0.00,VWS V14.00,2013-05-10 00:34:00,
2013-05-09 20:35:00,70.2,56.1,27.88,WSW,248,0.0,0.0,61,0.00,,---,0.00,VWS V14.00,2013-05-10 00:35:00,
2013-05-09 20:37:00,70.0,55.5,27.88,SW,225,0.0,0.0,60,0.00,,---,0.00,VWS V14.00,2013-05-10 00:37:00,
2013-05-09 20:39:00,69.8,55.3,27.88,SW,225,0.0,0.0,60,0.00,,---,0.00,VWS V14.00,2013-05-10 00:39:00,
2013-05-09 20:40:00,69.6,55.1,27.88,SW,225,0.0,0.0,60,0.00,,---,0.00,VWS V14.00,2013-05-10 00:40:00,
2013-05-09 20:42:00,69.4,55.4,27.88,SW,225,0.0,0.0,61,0.00,,---,0.00,VWS V14.00,2013-05-10 00:42:00,
2013-05-09 20:44:00,69.4,55.4,27.88,SW,225,0.0,0.0,61,0.00,,---,0.00,VWS V14.00,2013-05-10 00:44:00,
2013-05-09 20:45:00,69.4,55.4,27.88,SW,225,0.0,0.0,61,0.00,,---,0.00,VWS V14.00,2013-05-10 00:45:00,
2013-05-09 20:47:00,69.3,55.2,27.88,SW,225,0.0,0.0,61,0.00,,---,0.00,VWS V14.00,2013-05-10 00:47:00,
2013-05-09 20:49:00,69.3,55.2,27.88,SW,225,0.0,0.0,61,0.00,,---,0.00,VWS V14.00,2013-05-10 00:49:00,
2013-05-09 20:50:00,69.3,55.2,27.88,SW,225,0.0,0.0,61,0.00,,---,0.00,VWS V14.00,2013-05-10 00:50:00,
2013-05-09 20:52:00,69.3,55.7,27.88,SW,225,0.0,0.0,62,0.00,,---,0.00,VWS V14.00,2013-05-10 00:52:00,
2013-05-09 20:54:00,69.3,55.7,27.88,SW,225,0.0,0.0,62,0.00,,---,0.00,VWS V14.00,2013-05-10 00:54:00,
2013-05-09 20:55:00,69.3,55.7,27.88,SW,225,0.0,0.0,62,0.00,,---,0.00,VWS V14.00,2013-05-10 00:55:00,
2013-05-09 20:56:00,69.3,55.7,27.88,SW,225,0.0,0.0,62,0.00,,---,0.00,VWS V14.00,2013-05-10 00:56:00,
2013-05-09 20:57:00,69.1,55.5,27.88,SW,225,0.0,0.0,62,0.00,,---,0.00,VWS V14.00,2013-05-10 00:57:00,
2013-05-09 20:59:00,68.9,55.8,27.88,SW,225,0.0,0.0,63,0.00,,---,0.00,VWS V14.00,2013-05-10 00:59:00,
2013-05-09 21:00:00,68.9,55.8,27.88,SW,225,0.0,0.0,63,0.00,,---,0.00,VWS V14.00,2013-05-10 01:00:00,
2013-05-09 21:01:00,68.9,55.8,27.88,SW,225,0.0,0.0,63,0.00,,---,0.00,VWS V14.00,2013-05-10 01:01:00,
2013-05-09 21:02:00,68.7,56.1,27.88,SW,225,0.0,0.0,64,0.00,,---,0.00,VWS V14.00,2013-05-10 01:02:00,
2013-05-09 21:04:00,68.7,56.1,27.88,NNW,338,0.0,0.0,64,0.00,,---,0.00,VWS V14.00,2013-05-10 01:04:00,
2013-05-09 21:05:00,68.7,56.1,27.88,NNW,338,0.0,0.0,64,0.00,,---,0.00,VWS V14.00,2013-05-10 01:05:00,
2013-05-09 21:06:00,68.7,56.1,27.88,NNW,338,0.0,0.0,64,0.00,,---,0.00,VWS V14.00,2013-05-10 01:06:00,
2013-05-09 21:07:00,68.5,56.3,27.88,NNW,338,0.0,0.0,65,0.00,,---,0.00,VWS V14.00,2013-05-10 01:07:00,
2013-05-09 21:10:00,68.2,56.4,27.88,NNW,338,0.0,0.0,66,0.00,,---,0.00,VWS V14.00,2013-05-10 01:10:00,
2013-05-09 21:11:00,68.2,56.8,27.88,NNW,338,0.0,0.0,67,0.00,,---,0.00,VWS V14.00,2013-05-10 01:11:00,
2013-05-09 21:13:00,68.0,56.7,27.88,NNW,338,0.0,0.0,67,0.00,,---,0.00,VWS V14.00,2013-05-10 01:13:00,
2013-05-09 21:15:00,67.8,56.9,27.88,NNW,338,0.0,0.0,68,0.00,,---,0.00,VWS V14.00,2013-05-10 01:15:00,
2013-05-09 21:16:00,67.8,56.9,27.88,West,270,0.0,0.0,68,0.00,,---,0.00,VWS V14.00,2013-05-10 01:16:00,
2013-05-09 21:18:00,67.8,57.3,27.88,West,270,0.0,0.0,69,0.00,,---,0.00,VWS V14.00,2013-05-10 01:18:00,
2013-05-09 21:20:00,67.6,57.1,27.88,West,270,0.0,0.0,69,0.00,,---,0.00,VWS V14.00,2013-05-10 01:20:00,
2013-05-09 21:21:00,67.6,57.1,27.88,West,270,0.0,0.0,69,0.00,,---,0.00,VWS V14.00,2013-05-10 01:21:00,
2013-05-09 21:23:00,67.5,57.3,27.88,West,270,0.0,0.0,70,0.00,,---,0.00,VWS V14.00,2013-05-10 01:23:00,
2013-05-09 21:25:00,67.5,57.3,27.88,West,270,0.0,0.0,70,0.00,,---,0.00,VWS V14.00,2013-05-10 01:25:00,
2013-05-09 21:26:00,67.5,57.3,27.88,West,270,0.0,0.0,70,0.00,,---,0.00,VWS V14.00,2013-05-10 01:26:00,
2013-05-09 21:28:00,67.3,57.2,27.88,West,270,0.0,0.0,70,0.00,,---,0.00,VWS V14.00,2013-05-10 01:28:00,
2013-05-09 21:30:00,67.1,57.4,27.88,West,270,0.0,0.0,71,0.00,,---,0.00,VWS V14.00,2013-05-10 01:30:00,
2013-05-09 21:31:00,67.1,57.4,27.88,West,270,0.0,0.0,71,0.00,,---,0.00,VWS V14.00,2013-05-10 01:31:00,
2013-05-09 21:33:00,67.1,57.4,27.88,West,270,0.0,0.0,71,0.00,,---,0.00,VWS V14.00,2013-05-10 01:33:00,
2013-05-09 21:36:00,66.9,57.2,27.88,West,270,0.0,0.0,71,0.00,,---,0.00,VWS V14.00,2013-05-10 01:36:00,
2013-05-09 21:37:00,66.9,57.2,27.88,West,270,0.0,0.0,71,0.00,,---,0.00,VWS V14.00,2013-05-10 01:37:00,
2013-05-09 21:39:00,66.9,57.2,27.88,West,270,0.0,0.0,71,0.00,,---,0.00,VWS V14.00,2013-05-10 01:39:00,
2013-05-09 21:41:00,66.7,57.0,27.88,West,270,0.0,0.0,71,0.00,,---,0.00,VWS V14.00,2013-05-10 01:41:00,
2013-05-09 21:42:00,66.7,57.0,27.88,West,270,0.0,0.0,71,0.00,,---,0.00,VWS V14.00,2013-05-10 01:42:00,
2013-05-09 21:44:00,66.7,57.4,27.90,West,270,0.0,0.0,72,0.00,,---,0.00,VWS V14.00,2013-05-10 01:44:00,
2013-05-09 21:46:00,66.7,57.4,27.90,West,270,0.0,0.0,72,0.00,,---,0.00,VWS V14.00,2013-05-10 01:46:00,
2013-05-09 21:47:00,66.7,57.4,27.90,West,270,0.0,0.0,72,0.00,,---,0.00,VWS V14.00,2013-05-10 01:47:00,
2013-05-09 21:49:00,66.6,57.3,27.90,West,270,0.0,0.0,72,0.00,,---,0.00,VWS V14.00,2013-05-10 01:49:00,
2013-05-09 21:51:00,66.4,57.1,27.90,West,270,0.0,0.0,72,0.00,,---,0.00,VWS V14.00,2013-05-10 01:51:00,
2013-05-09 21:52:00,66.4,57.1,27.90,West,270,0.0,0.0,72,0.00,,---,0.00,VWS V14.00,2013-05-10 01:52:00,
2013-05-09 21:53:00,66.4,57.1,27.90,West,270,0.0,0.0,72,0.00,,---,0.00,VWS V14.00,2013-05-10 01:53:00,
2013-05-09 21:54:00,66.2,57.3,27.90,West,270,0.0,0.0,73,0.00,,---,0.00,VWS V14.00,2013-05-10 01:54:00,
2013-05-09 21:56:00,66.2,57.3,27.90,West,270,0.0,0.0,73,0.00,,---,0.00,VWS V14.00,2013-05-10 01:56:00,
2013-05-09 21:57:00,66.2,57.3,27.90,West,270,0.0,0.0,73,0.00,,---,0.00,VWS V14.00,2013-05-10 01:57:00,
2013-05-09 21:58:00,66.0,57.9,27.90,West,270,0.0,0.0,75,0.00,,---,0.00,VWS V14.00,2013-05-10 01:58:00,
2013-05-09 21:59:00,66.0,57.9,27.90,West,270,0.0,0.0,75,0.00,,---,0.00,VWS V14.00,2013-05-10 01:59:00,
2013-05-09 22:01:00,66.0,57.9,27.90,West,270,0.0,0.0,75,0.00,,---,0.00,VWS V14.00,2013-05-10 02:01:00,
2013-05-09 22:02:00,66.0,57.9,27.90,West,270,0.0,0.0,75,0.00,,---,0.00,VWS V14.00,2013-05-10 02:02:00,
2013-05-09 22:04:00,65.8,58.1,27.90,West,270,0.0,0.0,76,0.00,,---,0.00,VWS V14.00,2013-05-10 02:04:00,
2013-05-09 22:05:00,65.8,58.1,27.90,West,270,0.0,0.0,76,0.00,,---,0.00,VWS V14.00,2013-05-10 02:05:00,
2013-05-09 22:06:00,65.7,57.9,27.90,West,270,0.0,0.0,76,0.00,,---,0.00,VWS V14.00,2013-05-10 02:06:00,
2013-05-09 22:07:00,65.7,57.9,27.90,West,270,0.0,0.0,76,0.00,,---,0.00,VWS V14.00,2013-05-10 02:07:00,
2013-05-09 22:09:00,65.7,57.9,27.90,West,270,0.0,0.0,76,0.00,,---,0.00,VWS V14.00,2013-05-10 02:09:00,
2013-05-09 22:10:00,65.7,57.9,27.90,West,270,0.0,0.0,76,0.00,,---,0.00,VWS V14.00,2013-05-10 02:10:00,
2013-05-09 22:12:00,65.7,58.3,27.90,West,270,0.0,0.0,77,0.00,,---,0.00,VWS V14.00,2013-05-10 02:12:00,
2013-05-09 22:14:00,65.7,58.3,27.90,West,270,0.0,0.0,77,0.00,,---,0.00,VWS V14.00,2013-05-10 02:14:00,
2013-05-09 22:15:00,65.7,58.3,27.90,West,270,0.0,0.0,77,0.00,,---,0.00,VWS V14.00,2013-05-10 02:15:00,
2013-05-09 22:17:00,65.5,58.1,27.90,West,270,0.0,0.0,77,0.00,,---,0.00,VWS V14.00,2013-05-10 02:17:00,
2013-05-09 22:19:00,65.5,58.1,27.90,West,270,0.0,0.0,77,0.00,,---,0.00,VWS V14.00,2013-05-10 02:19:00,
2013-05-09 22:20:00,65.5,58.1,27.90,West,270,0.0,0.0,77,0.00,,---,0.00,VWS V14.00,2013-05-10 02:20:00,
2013-05-09 22:22:00,65.5,58.1,27.90,West,270,0.0,0.0,77,0.00,,---,0.00,VWS V14.00,2013-05-10 02:22:00,
2013-05-09 22:23:00,65.5,58.1,27.90,West,270,0.0,0.0,77,0.00,,---,0.00,VWS V14.00,2013-05-10 02:23:00,
2013-05-09 22:24:00,65.5,58.1,27.90,West,270,0.0,0.0,77,0.00,,---,0.00,VWS V14.00,2013-05-10 02:24:00,
2013-05-09 22:25:00,65.5,58.1,27.90,West,270,0.0,0.0,77,0.00,,---,0.00,VWS V14.00,2013-05-10 02:25:00,
2013-05-09 22:27:00,65.5,58.5,27.90,West,270,0.0,0.0,78,0.00,,---,0.00,VWS V14.00,2013-05-10 02:27:00,
2013-05-09 22:28:00,65.5,58.5,27.90,West,270,0.0,0.0,78,0.00,,---,0.00,VWS V14.00,2013-05-10 02:28:00,
2013-05-09 22:29:00,65.5,58.5,27.90,West,270,0.0,0.0,78,0.00,,---,0.00,VWS V14.00,2013-05-10 02:29:00,
2013-05-09 22:30:00,65.5,58.5,27.90,West,270,0.0,0.0,78,0.00,,---,0.00,VWS V14.00,2013-05-10 02:30:00,
2013-05-09 22:32:00,65.3,58.3,27.90,West,270,0.0,0.0,78,0.00,,---,0.00,VWS V14.00,2013-05-10 02:32:00,
2013-05-09 22:33:00,65.5,58.5,27.90,West,270,0.0,0.0,78,0.00,,---,0.00,VWS V14.00,2013-05-10 02:33:00,
2013-05-09 22:34:00,65.5,58.5,27.90,West,270,0.0,0.0,78,0.00,,---,0.00,VWS V14.00,2013-05-10 02:34:00,
2013-05-09 22:35:00,65.3,58.3,27.90,West,270,0.0,0.0,78,0.00,,---,0.00,VWS V14.00,2013-05-10 02:35:00,
2013-05-09 22:37:00,65.3,58.3,27.90,West,270,0.0,0.0,78,0.00,,---,0.00,VWS V14.00,2013-05-10 02:37:00,
2013-05-09 22:38:00,65.1,58.5,27.90,West,270,0.0,0.0,79,0.00,,---,0.00,VWS V14.00,2013-05-10 02:38:00,
2013-05-09 22:39:00,65.1,58.5,27.90,West,270,0.0,0.0,79,0.00,,---,0.00,VWS V14.00,2013-05-10 02:39:00,
2013-05-09 22:40:00,65.1,58.5,27.90,West,270,0.0,0.0,79,0.00,,---,0.00,VWS V14.00,2013-05-10 02:40:00,
2013-05-09 22:42:00,65.1,58.5,27.90,West,270,0.0,0.0,79,0.00,,---,0.00,VWS V14.00,2013-05-10 02:42:00,
2013-05-09 22:43:00,65.1,58.5,27.90,West,270,0.0,0.0,79,0.00,,---,0.00,VWS V14.00,2013-05-10 02:43:00,
2013-05-09 22:44:00,64.9,58.3,27.90,West,270,0.0,0.0,79,0.00,,---,0.00,VWS V14.00,2013-05-10 02:44:00,
2013-05-09 22:45:00,64.9,58.3,27.90,West,270,0.0,0.0,79,0.00,,---,0.00,VWS V14.00,2013-05-10 02:45:00,
2013-05-09 22:47:00,64.9,58.3,27.90,West,270,0.0,0.0,79,0.00,,---,0.00,VWS V14.00,2013-05-10 02:47:00,
2013-05-09 22:49:00,64.9,58.3,27.90,West,270,0.0,0.0,79,0.00,,---,0.00,VWS V14.00,2013-05-10 02:49:00,
2013-05-09 22:50:00,64.9,58.3,27.90,West,270,0.0,0.0,79,0.00,,---,0.00,VWS V14.00,2013-05-10 02:50:00,
2013-05-09 22:51:00,64.8,58.1,27.90,West,270,0.0,0.0,79,0.00,,---,0.00,VWS V14.00,2013-05-10 02:51:00,
2013-05-09 22:52:00,64.8,58.1,27.90,WNW,292,0.0,0.0,79,0.00,,---,0.00,VWS V14.00,2013-05-10 02:52:00,
2013-05-09 22:54:00,64.8,58.1,27.90,WNW,292,0.0,0.0,79,0.00,,---,0.00,VWS V14.00,2013-05-10 02:54:00,
2013-05-09 22:55:00,64.8,58.1,27.90,WNW,292,0.0,0.0,79,0.00,,---,0.00,VWS V14.00,2013-05-10 02:55:00,
2013-05-09 22:56:00,64.8,58.1,27.90,WNW,292,0.0,0.0,79,0.00,,---,0.00,VWS V14.00,2013-05-10 02:56:00,
2013-05-09 22:57:00,64.8,58.1,27.90,WNW,292,0.0,0.0,79,0.00,,---,0.00,VWS V14.00,2013-05-10 02:57:00,
2013-05-09 22:59:00,64.6,57.9,27.90,WNW,292,0.0,0.0,79,0.00,,---,0.00,VWS V14.00,2013-05-10 02:59:00,
2013-05-09 23:00:00,64.6,58.3,27.90,WNW,292,0.0,0.0,80,0.00,,---,0.00,VWS V14.00,2013-05-10 03:00:00,
2013-05-09 23:01:00,64.6,58.3,27.90,WNW,292,0.0,0.0,80,0.00,,---,0.00,VWS V14.00,2013-05-10 03:01:00,
2013-05-09 23:02:00,64.6,58.3,27.90,WNW,292,0.0,0.0,80,0.00,,---,0.00,VWS V14.00,2013-05-10 03:02:00,
2013-05-09 23:04:00,64.4,58.1,27.90,WNW,292,0.0,0.0,80,0.00,,---,0.00,VWS V14.00,2013-05-10 03:04:00,
2013-05-09 23:05:00,64.4,58.1,27.90,WNW,292,0.0,0.0,80,0.00,,---,0.00,VWS V14.00,2013-05-10 03:05:00,
2013-05-09 23:06:00,64.4,58.1,27.90,WNW,292,0.0,0.0,80,0.00,,---,0.00,VWS V14.00,2013-05-10 03:06:00,
2013-05-09 23:07:00,64.4,58.1,27.90,WNW,292,0.0,0.0,80,0.00,,---,0.00,VWS V14.00,2013-05-10 03:07:00,
2013-05-09 23:09:00,64.2,58.3,27.90,WNW,292,0.0,0.0,81,0.00,,---,0.00,VWS V14.00,2013-05-10 03:09:00,
2013-05-09 23:10:00,64.2,58.3,27.90,WNW,292,0.0,0.0,81,0.00,,---,0.00,VWS V14.00,2013-05-10 03:10:00,
2013-05-09 23:11:00,64.2,58.3,27.90,WNW,292,0.0,0.0,81,0.00,,---,0.00,VWS V14.00,2013-05-10 03:11:00,
2013-05-09 23:12:00,64.2,58.3,27.90,WNW,292,0.0,0.0,81,0.00,,---,0.00,VWS V14.00,2013-05-10 03:12:00,
2013-05-09 23:14:00,63.9,57.9,27.90,WNW,292,0.0,0.0,81,0.00,,---,0.00,VWS V14.00,2013-05-10 03:14:00,
2013-05-09 23:15:00,63.9,58.3,27.90,WNW,292,0.0,0.0,82,0.00,,---,0.00,VWS V14.00,2013-05-10 03:15:00,
2013-05-09 23:16:00,63.9,58.3,27.90,WNW,292,0.0,0.0,82,0.00,,---,0.00,VWS V14.00,2013-05-10 03:16:00,
2013-05-09 23:17:00,63.9,58.3,27.90,WNW,292,0.0,0.0,82,0.00,,---,0.00,VWS V14.00,2013-05-10 03:17:00,
2013-05-09 23:19:00,63.9,58.3,27.90,WNW,292,0.0,0.0,82,0.00,,---,0.00,VWS V14.00,2013-05-10 03:19:00,
2013-05-09 23:21:00,63.9,58.3,27.90,WNW,292,0.0,0.0,82,0.00,,---,0.00,VWS V14.00,2013-05-10 03:21:00,
2013-05-09 23:22:00,63.9,58.3,27.90,WNW,292,0.0,0.0,82,0.00,,---,0.00,VWS V14.00,2013-05-10 03:22:00,
2013-05-09 23:24:00,63.7,58.1,27.90,WNW,292,0.0,0.0,82,0.00,,---,0.00,VWS V14.00,2013-05-10 03:24:00,
2013-05-09 23:26:00,63.7,58.1,27.90,WNW,292,0.0,0.0,82,0.00,,---,0.00,VWS V14.00,2013-05-10 03:26:00,
2013-05-09 23:27:00,63.7,58.1,27.90,WNW,292,0.0,0.0,82,0.00,,---,0.00,VWS V14.00,2013-05-10 03:27:00,
2013-05-09 23:28:00,63.7,58.1,27.90,WNW,292,0.0,0.0,82,0.00,,---,0.00,VWS V14.00,2013-05-10 03:28:00,
2013-05-09 23:29:00,63.7,58.1,27.90,WNW,292,0.0,0.0,82,0.00,,---,0.00,VWS V14.00,2013-05-10 03:29:00,
2013-05-09 23:31:00,63.5,57.9,27.90,WNW,292,0.0,0.0,82,0.00,,---,0.00,VWS V14.00,2013-05-10 03:31:00,
2013-05-09 23:32:00,63.5,57.9,27.90,WNW,292,0.0,0.0,82,0.00,,---,0.00,VWS V14.00,2013-05-10 03:32:00,
2013-05-09 23:33:00,63.5,57.9,27.90,WNW,292,0.0,0.0,82,0.00,,---,0.00,VWS V14.00,2013-05-10 03:33:00,
2013-05-09 23:34:00,63.5,57.9,27.90,WNW,292,0.0,0.0,82,0.00,,---,0.00,VWS V14.00,2013-05-10 03:34:00,
2013-05-09 23:36:00,63.5,57.9,27.90,WNW,292,0.0,0.0,82,0.00,,---,0.00,VWS V14.00,2013-05-10 03:36:00,
2013-05-09 23:37:00,63.5,57.9,27.90,WNW,292,0.0,0.0,82,0.00,,---,0.00,VWS V14.00,2013-05-10 03:37:00,
2013-05-09 23:38:00,63.5,57.9,27.90,WNW,292,0.0,0.0,82,0.00,,---,0.00,VWS V14.00,2013-05-10 03:38:00,
2013-05-09 23:40:00,63.5,57.9,27.90,WNW,292,0.0,0.0,82,0.00,,---,0.00,VWS V14.00,2013-05-10 03:40:00,
2013-05-09 23:42:00,63.5,58.2,27.90,WNW,292,0.0,0.0,83,0.00,,---,0.00,VWS V14.00,2013-05-10 03:42:00,
2013-05-09 23:43:00,63.3,58.1,27.90,WNW,292,0.0,0.0,83,0.00,,---,0.00,VWS V14.00,2013-05-10 03:43:00,
2013-05-09 23:45:00,63.3,58.1,27.90,WNW,292,0.0,0.0,83,0.00,,---,0.00,VWS V14.00,2013-05-10 03:45:00,
2013-05-09 23:47:00,63.3,58.1,27.90,WNW,292,0.0,0.0,83,0.00,,---,0.00,VWS V14.00,2013-05-10 03:47:00,
2013-05-09 23:48:00,63.3,58.1,27.90,WNW,292,0.0,0.0,83,0.00,,---,0.00,VWS V14.00,2013-05-10 03:48:00,
2013-05-09 23:50:00,63.3,58.1,27.90,WNW,292,0.0,0.0,83,0.00,,---,0.00,VWS V14.00,2013-05-10 03:50:00,
2013-05-09 23:52:00,63.3,58.1,27.90,WNW,292,0.0,0.0,83,0.00,,---,0.00,VWS V14.00,2013-05-10 03:52:00,
2013-05-09 23:53:00,63.3,58.1,27.90,WNW,292,0.0,0.0,83,0.00,,---,0.00,VWS V14.00,2013-05-10 03:53:00,
2013-05-09 23:55:00,63.3,58.1,27.90,WNW,292,0.0,0.0,83,0.00,,---,0.00,VWS V14.00,2013-05-10 03:55:00,
2013-05-09 23:57:00,63.1,57.9,27.90,WNW,292,0.0,0.0,83,0.00,,---,0.00,VWS V14.00,2013-05-10 03:57:00,
2013-05-09 23:58:00,63.1,57.9,27.90,WNW,292,0.0,0.0,83,0.00,,---,0.00,VWS V14.00,2013-05-10 03:58:00,
2013-05-09 23:59:00,63.1,57.9,27.90,WNW,292,0.0,0.0,83,0.00,,---,0.00,VWS V14.00,2013-05-10 03:59:00,